sensor_id;sensor_type;location;lat;lon;timestamp;pressure;altitude;pressure_sealevel;temperature;humidity
15382;BME280;7789;51.364;12.358;2023-02-28T00:00:08;101748.38;;;3.18;68.94
15382;BME280;7789;51.364;12.358;2023-02-28T00:05:14;101748.53;;;3.12;69.11
15382;BME280;7789;51.364;12.358;2023-02-28T00:10:19;101745.91;;;3.13;69.11
15382;BME280;7789;51.364;12.358;2023-02-28T00:15:24;101748.53;;;3.12;69.16
15382;BME280;7789;51.364;12.358;2023-02-28T00:20:27;101743.34;;;3.12;69.58
15382;BME280;7789;51.364;12.358;2023-02-28T00:25:31;101746.91;;;3.09;69.95
15382;BME280;7789;51.364;12.358;2023-02-28T00:30:36;101742.66;;;3.07;69.86
15382;BME280;7789;51.364;12.358;2023-02-28T00:35:39;101743.53;;;3.07;70.06
15382;BME280;7789;51.364;12.358;2023-02-28T00:40:42;101746.16;;;3.04;69.68
15382;BME280;7789;51.364;12.358;2023-02-28T00:45:47;101740.28;;;3.01;70.01
15382;BME280;7789;51.364;12.358;2023-02-28T00:50:50;101741.06;;;3.03;70.26
15382;BME280;7789;51.364;12.358;2023-02-28T00:55:54;101748.00;;;3.01;70.71
15382;BME280;7789;51.364;12.358;2023-02-28T01:00:58;101745.47;;;2.99;70.48
15382;BME280;7789;51.364;12.358;2023-02-28T01:06:02;101746.47;;;2.94;71.16
15382;BME280;7789;51.364;12.358;2023-02-28T01:11:09;101742.88;;;2.99;71.33
15382;BME280;7789;51.364;12.358;2023-02-28T01:16:14;101741.16;;;3.00;71.58
15382;BME280;7789;51.364;12.358;2023-02-28T01:21:20;101739.47;;;2.99;71.07
15382;BME280;7789;51.364;12.358;2023-02-28T01:26:24;101737.84;;;2.95;70.81
15382;BME280;7789;51.364;12.358;2023-02-28T01:31:28;101736.88;;;2.99;71.57
15382;BME280;7789;51.364;12.358;2023-02-28T01:36:32;101740.41;;;2.95;71.63
15382;BME280;7789;51.364;12.358;2023-02-28T01:41:35;101735.34;;;2.92;71.58
15382;BME280;7789;51.364;12.358;2023-02-28T01:46:40;101725.13;;;2.89;71.85
15382;BME280;7789;51.364;12.358;2023-02-28T01:51:46;101730.19;;;2.92;71.81
15382;BME280;7789;51.364;12.358;2023-02-28T01:56:56;101722.34;;;2.95;72.09
15382;BME280;7789;51.364;12.358;2023-02-28T02:02:02;101723.16;;;2.97;72.18
15382;BME280;7789;51.364;12.358;2023-02-28T02:07:06;101718.88;;;2.96;71.84
15382;BME280;7789;51.364;12.358;2023-02-28T02:12:26;101713.78;;;2.94;72.37
15382;BME280;7789;51.364;12.358;2023-02-28T02:17:38;101709.59;;;2.90;72.65
15382;BME280;7789;51.364;12.358;2023-02-28T02:28:46;101699.25;;;2.90;73.08
15382;BME280;7789;51.364;12.358;2023-02-28T02:34:20;101697.53;;;2.89;72.93
15382;BME280;7789;51.364;12.358;2023-02-28T02:39:30;101700.31;;;2.83;72.78
15382;BME280;7789;51.364;12.358;2023-02-28T02:44:38;101704.06;;;2.73;73.42
15382;BME280;7789;51.364;12.358;2023-02-28T02:49:49;101710.41;;;2.62;73.98
15382;BME280;7789;51.364;12.358;2023-02-28T02:54:55;101715.03;;;2.51;74.08
15382;BME280;7789;51.364;12.358;2023-02-28T03:00:02;101728.28;;;2.37;74.30
15382;BME280;7789;51.364;12.358;2023-02-28T03:05:18;101717.22;;;2.34;74.56
15382;BME280;7789;51.364;12.358;2023-02-28T03:10:33;101719.28;;;2.21;74.73
15382;BME280;7789;51.364;12.358;2023-02-28T03:15:43;101717.72;;;2.14;75.01
15382;BME280;7789;51.364;12.358;2023-02-28T03:21:00;101728.22;;;2.08;74.99
15382;BME280;7789;51.364;12.358;2023-02-28T03:26:12;101723.97;;;2.06;75.32
15382;BME280;7789;51.364;12.358;2023-02-28T03:31:24;101724.88;;;2.03;75.40
15382;BME280;7789;51.364;12.358;2023-02-28T03:36:35;101731.06;;;1.98;75.61
15382;BME280;7789;51.364;12.358;2023-02-28T03:41:49;101728.63;;;1.92;75.94
15382;BME280;7789;51.364;12.358;2023-02-28T03:46:57;101727.16;;;1.82;76.23
15382;BME280;7789;51.364;12.358;2023-02-28T03:52:06;101725.50;;;1.79;76.52
15382;BME280;7789;51.364;12.358;2023-02-28T03:57:17;101728.69;;;1.89;76.77
15382;BME280;7789;51.364;12.358;2023-02-28T04:02:23;101718.38;;;1.90;76.57
15382;BME280;7789;51.364;12.358;2023-02-28T04:07:30;101731.00;;;1.99;76.62
15382;BME280;7789;51.364;12.358;2023-02-28T04:12:33;101731.75;;;2.04;76.83
15382;BME280;7789;51.364;12.358;2023-02-28T04:17:37;101730.94;;;2.02;76.06
15382;BME280;7789;51.364;12.358;2023-02-28T04:22:42;101729.22;;;2.03;76.41
15382;BME280;7789;51.364;12.358;2023-02-28T04:27:45;101734.34;;;2.04;76.35
15382;BME280;7789;51.364;12.358;2023-02-28T04:32:48;101740.31;;;2.06;76.03
15382;BME280;7789;51.364;12.358;2023-02-28T04:37:53;101746.25;;;2.08;76.17
15382;BME280;7789;51.364;12.358;2023-02-28T04:42:56;101744.75;;;2.00;76.23
15382;BME280;7789;51.364;12.358;2023-02-28T04:47:59;101747.53;;;1.92;76.27
15382;BME280;7789;51.364;12.358;2023-02-28T04:53:04;101745.84;;;1.90;76.21
15382;BME280;7789;51.364;12.358;2023-02-28T04:58:07;101739.00;;;1.90;76.05
15382;BME280;7789;51.364;12.358;2023-02-28T05:03:10;101739.59;;;2.00;75.71
15382;BME280;7789;51.364;12.358;2023-02-28T05:08:15;101753.22;;;2.05;75.60
15382;BME280;7789;51.364;12.358;2023-02-28T05:13:19;101749.94;;;1.98;75.65
15382;BME280;7789;51.364;12.358;2023-02-28T05:18:24;101751.78;;;1.93;75.84
15382;BME280;7789;51.364;12.358;2023-02-28T05:23:32;101751.81;;;1.92;75.83
15382;BME280;7789;51.364;12.358;2023-02-28T05:28:36;101755.44;;;1.85;75.77
15382;BME280;7789;51.364;12.358;2023-02-28T05:33:40;101757.25;;;1.81;75.74
15382;BME280;7789;51.364;12.358;2023-02-28T05:38:46;101759.09;;;1.75;75.72
15382;BME280;7789;51.364;12.358;2023-02-28T05:43:49;101761.88;;;1.68;76.10
15382;BME280;7789;51.364;12.358;2023-02-28T05:48:53;101767.16;;;1.63;76.26
15382;BME280;7789;51.364;12.358;2023-02-28T05:54:02;101777.50;;;1.60;76.35
15382;BME280;7789;51.364;12.358;2023-02-28T05:59:06;101777.56;;;1.57;76.50
15382;BME280;7789;51.364;12.358;2023-02-28T06:04:10;101778.44;;;1.56;76.79
15382;BME280;7789;51.364;12.358;2023-02-28T06:09:32;101788.97;;;1.47;76.82
15382;BME280;7789;51.364;12.358;2023-02-28T06:14:43;101793.34;;;1.44;77.01
15382;BME280;7789;51.364;12.358;2023-02-28T06:19:57;101802.75;;;1.46;76.62
15382;BME280;7789;51.364;12.358;2023-02-28T06:25:02;101805.31;;;1.46;77.11
15382;BME280;7789;51.364;12.358;2023-02-28T06:30:09;101819.88;;;1.47;76.68
15382;BME280;7789;51.364;12.358;2023-02-28T06:35:13;101826.66;;;1.51;76.38
15382;BME280;7789;51.364;12.358;2023-02-28T06:40:18;101815.56;;;1.49;76.68
15382;BME280;7789;51.364;12.358;2023-02-28T06:45:23;101833.41;;;1.57;76.60
15382;BME280;7789;51.364;12.358;2023-02-28T06:50:28;101828.22;;;1.58;76.63
15382;BME280;7789;51.364;12.358;2023-02-28T06:55:34;101829.00;;;1.62;76.18
15382;BME280;7789;51.364;12.358;2023-02-28T07:00:40;101834.91;;;1.67;76.10
15382;BME280;7789;51.364;12.358;2023-02-28T07:05:44;101841.56;;;1.75;75.17
15382;BME280;7789;51.364;12.358;2023-02-28T07:10:52;101842.25;;;1.83;75.27
15382;BME280;7789;51.364;12.358;2023-02-28T07:16:00;101843.72;;;1.93;75.05
15382;BME280;7789;51.364;12.358;2023-02-28T07:21:06;101850.84;;;2.20;75.06
15382;BME280;7789;51.364;12.358;2023-02-28T07:26:13;101834.59;;;4.75;68.41
15382;BME280;7789;51.364;12.358;2023-02-28T07:31:19;101841.59;;;5.19;67.22
15382;BME280;7789;51.364;12.358;2023-02-28T07:36:23;101835.78;;;5.37;66.34
15382;BME280;7789;51.364;12.358;2023-02-28T07:41:28;101837.06;;;5.70;65.24
15382;BME280;7789;51.364;12.358;2023-02-28T07:46:35;101845.81;;;6.33;63.27
15382;BME280;7789;51.364;12.358;2023-02-28T07:51:39;101838.34;;;7.06;61.22
15382;BME280;7789;51.364;12.358;2023-02-28T07:56:45;101848.50;;;6.72;59.67
15382;BME280;7789;51.364;12.358;2023-02-28T08:01:48;101834.22;;;7.38;57.25
15382;BME280;7789;51.364;12.358;2023-02-28T08:06:52;101839.63;;;8.43;55.19
15382;BME280;7789;51.364;12.358;2023-02-28T08:11:57;101840.94;;;8.35;54.58
15382;BME280;7789;51.364;12.358;2023-02-28T08:17:01;101825.03;;;8.73;52.01
15382;BME280;7789;51.364;12.358;2023-02-28T08:22:04;101835.34;;;7.88;53.52
15382;BME280;7789;51.364;12.358;2023-02-28T08:27:09;101818.13;;;8.89;51.78
15382;BME280;7789;51.364;12.358;2023-02-28T08:32:19;101822.91;;;9.46;49.37
15382;BME280;7789;51.364;12.358;2023-02-28T08:37:31;101836.53;;;10.28;45.89
15382;BME280;7789;51.364;12.358;2023-02-28T08:42:36;101825.06;;;9.38;46.43
15382;BME280;7789;51.364;12.358;2023-02-28T08:47:41;101848.09;;;8.30;48.09
15382;BME280;7789;51.364;12.358;2023-02-28T08:52:53;101841.00;;;7.42;46.61
15382;BME280;7789;51.364;12.358;2023-02-28T08:57:58;101848.16;;;7.19;47.87
15382;BME280;7789;51.364;12.358;2023-02-28T09:03:02;101858.63;;;6.98;48.40
15382;BME280;7789;51.364;12.358;2023-02-28T09:08:06;101860.75;;;7.08;47.99
15382;BME280;7789;51.364;12.358;2023-02-28T09:13:10;101854.09;;;6.83;48.20
15382;BME280;7789;51.364;12.358;2023-02-28T09:18:14;101854.72;;;6.68;47.59
15382;BME280;7789;51.364;12.358;2023-02-28T09:23:18;101845.56;;;6.59;48.33
15382;BME280;7789;51.364;12.358;2023-02-28T09:28:23;101863.44;;;6.67;47.69
15382;BME280;7789;51.364;12.358;2023-02-28T09:33:26;101870.00;;;6.55;47.70
15382;BME280;7789;51.364;12.358;2023-02-28T09:38:32;101860.16;;;6.00;46.63
15382;BME280;7789;51.364;12.358;2023-02-28T09:43:41;101870.22;;;5.86;46.64
15382;BME280;7789;51.364;12.358;2023-02-28T09:48:48;101857.25;;;6.08;46.92
15382;BME280;7789;51.364;12.358;2023-02-28T09:53:53;101861.09;;;5.98;46.49
15382;BME280;7789;51.364;12.358;2023-02-28T09:59:06;101859.16;;;6.03;47.60
15382;BME280;7789;51.364;12.358;2023-02-28T10:04:16;101856.75;;;5.98;47.22
15382;BME280;7789;51.364;12.358;2023-02-28T10:09:29;101850.13;;;6.13;46.87
15382;BME280;7789;51.364;12.358;2023-02-28T10:14:35;101851.38;;;6.24;46.59
15382;BME280;7789;51.364;12.358;2023-02-28T10:19:55;101864.84;;;6.54;46.66
15382;BME280;7789;51.364;12.358;2023-02-28T10:24:59;101850.50;;;6.45;45.95
15382;BME280;7789;51.364;12.358;2023-02-28T10:30:11;101854.84;;;6.45;45.45
15382;BME280;7789;51.364;12.358;2023-02-28T10:35:17;101857.31;;;6.48;45.95
15382;BME280;7789;51.364;12.358;2023-02-28T10:40:30;101843.22;;;6.33;45.52
15382;BME280;7789;51.364;12.358;2023-02-28T10:45:36;101844.53;;;6.63;46.93
15382;BME280;7789;51.364;12.358;2023-02-28T10:50:43;101837.41;;;6.48;45.81
15382;BME280;7789;51.364;12.358;2023-02-28T10:55:56;101825.44;;;6.44;46.39
15382;BME280;7789;51.364;12.358;2023-02-28T11:01:01;101824.66;;;6.42;46.40
15382;BME280;7789;51.364;12.358;2023-02-28T11:06:14;101813.44;;;6.42;46.43
15382;BME280;7789;51.364;12.358;2023-02-28T11:11:20;101821.09;;;6.45;47.49
15382;BME280;7789;51.364;12.358;2023-02-28T11:16:34;101816.09;;;6.40;46.53
15382;BME280;7789;51.364;12.358;2023-02-28T11:21:39;101799.41;;;6.46;47.22
15382;BME280;7789;51.364;12.358;2023-02-28T11:26:48;101808.38;;;6.59;47.23
15382;BME280;7789;51.364;12.358;2023-02-28T11:32:11;101806.09;;;6.51;47.17
15382;BME280;7789;51.364;12.358;2023-02-28T11:37:17;101799.91;;;6.54;47.71
15382;BME280;7789;51.364;12.358;2023-02-28T11:42:35;101817.00;;;6.39;47.54
15382;BME280;7789;51.364;12.358;2023-02-28T11:47:48;101815.50;;;6.12;47.76
15382;BME280;7789;51.364;12.358;2023-02-28T11:52:54;101810.81;;;6.22;48.31
15382;BME280;7789;51.364;12.358;2023-02-28T11:58:24;101809.78;;;6.26;48.31
15382;BME280;7789;51.364;12.358;2023-02-28T12:03:40;101803.03;;;6.22;47.68
15382;BME280;7789;51.364;12.358;2023-02-28T12:08:58;101789.25;;;6.20;48.33
15382;BME280;7789;51.364;12.358;2023-02-28T12:14:19;101788.47;;;6.18;47.64
15382;BME280;7789;51.364;12.358;2023-02-28T12:19:36;101775.69;;;6.13;48.32
15382;BME280;7789;51.364;12.358;2023-02-28T12:25:03;101772.44;;;6.28;48.92
15382;BME280;7789;51.364;12.358;2023-02-28T12:30:21;101777.72;;;6.27;47.90
15382;BME280;7789;51.364;12.358;2023-02-28T12:35:32;101770.38;;;6.36;49.08
15382;BME280;7789;51.364;12.358;2023-02-28T12:40:43;101775.91;;;6.29;48.65
15382;BME280;7789;51.364;12.358;2023-02-28T12:45:52;101763.41;;;6.17;49.02
15382;BME280;7789;51.364;12.358;2023-02-28T12:50:58;101748.56;;;6.20;49.04
15382;BME280;7789;51.364;12.358;2023-02-28T12:56:09;101747.19;;;6.32;49.75
15382;BME280;7789;51.364;12.358;2023-02-28T13:01:48;101736.09;;;6.28;48.95
15382;BME280;7789;51.364;12.358;2023-02-28T13:07:10;101729.03;;;6.32;48.96
15382;BME280;7789;51.364;12.358;2023-02-28T13:12:16;101730.97;;;6.27;48.97
15382;BME280;7789;51.364;12.358;2023-02-28T13:17:21;101737.91;;;6.26;49.87
15382;BME280;7789;51.364;12.358;2023-02-28T13:22:41;101731.34;;;6.18;49.10
15382;BME280;7789;51.364;12.358;2023-02-28T13:27:44;101715.78;;;6.18;49.94
15382;BME280;7789;51.364;12.358;2023-02-28T13:38:36;101725.97;;;6.22;49.19
15382;BME280;7789;51.364;12.358;2023-02-28T13:43:59;101724.75;;;6.31;48.94
15382;BME280;7789;51.364;12.358;2023-02-28T13:49:18;101725.66;;;6.30;49.36
15382;BME280;7789;51.364;12.358;2023-02-28T13:54:33;101723.44;;;6.21;48.84
15382;BME280;7789;51.364;12.358;2023-02-28T13:59:51;101703.47;;;6.23;50.14
15382;BME280;7789;51.364;12.358;2023-02-28T14:05:05;101707.03;;;6.20;49.24
15382;BME280;7789;51.364;12.358;2023-02-28T14:10:24;101722.88;;;6.14;49.45
15382;BME280;7789;51.364;12.358;2023-02-28T14:15:50;101698.53;;;6.17;49.81
15382;BME280;7789;51.364;12.358;2023-02-28T14:21:02;101695.28;;;6.12;49.83
15382;BME280;7789;51.364;12.358;2023-02-28T14:26:25;101690.09;;;6.12;49.95
15382;BME280;7789;51.364;12.358;2023-02-28T14:31:34;101697.09;;;6.10;49.88
15382;BME280;7789;51.364;12.358;2023-02-28T14:36:44;101698.19;;;6.04;50.30
15382;BME280;7789;51.364;12.358;2023-02-28T14:41:49;101689.56;;;6.04;50.41
15382;BME280;7789;51.364;12.358;2023-02-28T14:46:55;101706.44;;;5.94;50.12
15382;BME280;7789;51.364;12.358;2023-02-28T14:52:05;101705.72;;;5.90;50.43
15382;BME280;7789;51.364;12.358;2023-02-28T14:57:23;101687.03;;;5.82;50.63
15382;BME280;7789;51.364;12.358;2023-02-28T15:02:31;101691.44;;;5.80;50.43
15382;BME280;7789;51.364;12.358;2023-02-28T15:07:36;101678.47;;;5.80;50.79
15382;BME280;7789;51.364;12.358;2023-02-28T15:12:52;101689.75;;;5.79;50.97
15382;BME280;7789;51.364;12.358;2023-02-28T15:17:59;101695.88;;;5.77;50.30
15382;BME280;7789;51.364;12.358;2023-02-28T15:23:03;101688.41;;;5.69;51.16
15382;BME280;7789;51.364;12.358;2023-02-28T15:28:14;101684.94;;;5.69;51.33
15382;BME280;7789;51.364;12.358;2023-02-28T15:33:23;101687.66;;;5.66;51.69
15382;BME280;7789;51.364;12.358;2023-02-28T15:38:27;101692.84;;;5.66;51.36
15382;BME280;7789;51.364;12.358;2023-02-28T15:43:36;101698.31;;;5.60;51.63
15382;BME280;7789;51.364;12.358;2023-02-28T15:48:44;101701.19;;;5.52;51.27
15382;BME280;7789;51.364;12.358;2023-02-28T15:53:51;101692.81;;;5.46;51.21
15382;BME280;7789;51.364;12.358;2023-02-28T15:59:04;101693.84;;;5.42;52.09
15382;BME280;7789;51.364;12.358;2023-02-28T16:04:15;101693.13;;;5.38;52.04
15382;BME280;7789;51.364;12.358;2023-02-28T16:09:19;101701.94;;;5.35;52.20
15382;BME280;7789;51.364;12.358;2023-02-28T16:14:25;101694.44;;;5.27;52.28
15382;BME280;7789;51.364;12.358;2023-02-28T16:19:29;101688.53;;;5.24;52.75
15382;BME280;7789;51.364;12.358;2023-02-28T16:24:35;101688.66;;;5.21;53.04
15382;BME280;7789;51.364;12.358;2023-02-28T16:29:39;101698.28;;;5.17;53.02
15382;BME280;7789;51.364;12.358;2023-02-28T16:34:44;101697.75;;;5.09;53.45
15382;BME280;7789;51.364;12.358;2023-02-28T16:39:51;101696.09;;;5.07;54.22
15382;BME280;7789;51.364;12.358;2023-02-28T16:44:55;101701.41;;;5.04;54.40
15382;BME280;7789;51.364;12.358;2023-02-28T16:50:00;101696.47;;;4.98;54.70
15382;BME280;7789;51.364;12.358;2023-02-28T16:55:06;101696.69;;;4.92;55.00
15382;BME280;7789;51.364;12.358;2023-02-28T17:00:13;101713.31;;;4.86;55.50
15382;BME280;7789;51.364;12.358;2023-02-28T17:05:17;101717.13;;;4.76;55.64
15382;BME280;7789;51.364;12.358;2023-02-28T17:10:22;101726.72;;;4.74;56.09
15382;BME280;7789;51.364;12.358;2023-02-28T17:15:27;101731.25;;;4.68;56.92
15382;BME280;7789;51.364;12.358;2023-02-28T17:20:32;101730.63;;;4.61;56.48
15382;BME280;7789;51.364;12.358;2023-02-28T17:25:36;101737.72;;;4.56;57.27
15382;BME280;7789;51.364;12.358;2023-02-28T17:30:41;101742.22;;;4.51;57.64
15382;BME280;7789;51.364;12.358;2023-02-28T17:35:48;101739.91;;;4.44;57.98
15382;BME280;7789;51.364;12.358;2023-02-28T17:40:52;101741.78;;;4.39;57.83
15382;BME280;7789;51.364;12.358;2023-02-28T17:46:00;101734.25;;;4.33;57.87
15382;BME280;7789;51.364;12.358;2023-02-28T17:51:03;101730.97;;;4.28;58.43
15382;BME280;7789;51.364;12.358;2023-02-28T17:56:11;101731.25;;;4.20;59.33
15382;BME280;7789;51.364;12.358;2023-02-28T18:01:16;101728.13;;;4.11;59.52
15382;BME280;7789;51.364;12.358;2023-02-28T18:06:22;101730.06;;;4.04;60.09
15382;BME280;7789;51.364;12.358;2023-02-28T18:11:26;101728.56;;;3.97;60.04
15382;BME280;7789;51.364;12.358;2023-02-28T18:16:49;101725.44;;;3.88;60.64
15382;BME280;7789;51.364;12.358;2023-02-28T18:21:54;101735.22;;;3.78;61.20
15382;BME280;7789;51.364;12.358;2023-02-28T18:27:00;101732.06;;;3.70;61.44
15382;BME280;7789;51.364;12.358;2023-02-28T18:32:05;101728.91;;;3.61;61.69
15382;BME280;7789;51.364;12.358;2023-02-28T18:37:12;101733.53;;;3.52;62.68
15382;BME280;7789;51.364;12.358;2023-02-28T18:42:31;101726.94;;;3.42;62.60
15382;BME280;7789;51.364;12.358;2023-02-28T18:47:41;101722.06;;;3.33;63.15
15382;BME280;7789;51.364;12.358;2023-02-28T18:52:51;101722.25;;;3.27;63.74
15382;BME280;7789;51.364;12.358;2023-02-28T18:58:06;101722.47;;;3.19;63.96
15382;BME280;7789;51.364;12.358;2023-02-28T19:03:11;101723.59;;;3.11;64.15
15382;BME280;7789;51.364;12.358;2023-02-28T19:08:15;101727.25;;;3.04;65.16
15382;BME280;7789;51.364;12.358;2023-02-28T19:13:18;101731.78;;;2.96;65.36
15382;BME280;7789;51.364;12.358;2023-02-28T19:18:25;101734.66;;;2.87;65.86
15382;BME280;7789;51.364;12.358;2023-02-28T19:23:33;101733.06;;;2.83;65.67
15382;BME280;7789;51.364;12.358;2023-02-28T19:28:37;101731.47;;;2.77;65.69
15382;BME280;7789;51.364;12.358;2023-02-28T19:33:42;101735.06;;;2.72;65.85
15382;BME280;7789;51.364;12.358;2023-02-28T19:38:46;101736.09;;;2.66;66.42
15382;BME280;7789;51.364;12.358;2023-02-28T19:43:52;101739.69;;;2.61;66.86
15382;BME280;7789;51.364;12.358;2023-02-28T19:48:57;101751.09;;;2.52;67.06
15382;BME280;7789;51.364;12.358;2023-02-28T19:54:00;101753.88;;;2.45;67.04
15382;BME280;7789;51.364;12.358;2023-02-28T19:59:06;101748.88;;;2.40;67.69
15382;BME280;7789;51.364;12.358;2023-02-28T20:04:28;101753.34;;;2.34;67.77
15382;BME280;7789;51.364;12.358;2023-02-28T20:09:32;101760.31;;;2.29;67.92
15382;BME280;7789;51.364;12.358;2023-02-28T20:14:36;101755.38;;;2.21;67.99
15382;BME280;7789;51.364;12.358;2023-02-28T20:19:40;101761.53;;;2.16;68.88
15382;BME280;7789;51.364;12.358;2023-02-28T20:24:43;101759.97;;;2.09;68.77
15382;BME280;7789;51.364;12.358;2023-02-28T20:29:48;101762.63;;;2.07;68.55
15382;BME280;7789;51.364;12.358;2023-02-28T20:34:53;101773.75;;;2.08;68.85
15382;BME280;7789;51.364;12.358;2023-02-28T20:39:56;101760.97;;;2.03;69.41
15382;BME280;7789;51.364;12.358;2023-02-28T20:44:59;101762.88;;;1.97;69.60
15382;BME280;7789;51.364;12.358;2023-02-28T20:50:04;101760.44;;;1.91;70.13
15382;BME280;7789;51.364;12.358;2023-02-28T20:55:09;101758.84;;;1.85;70.00
15382;BME280;7789;51.364;12.358;2023-02-28T21:00:13;101765.84;;;1.80;70.78
15382;BME280;7789;51.364;12.358;2023-02-28T21:05:25;101764.31;;;1.74;70.81
15382;BME280;7789;51.364;12.358;2023-02-28T21:10:30;101758.41;;;1.69;71.14
15382;BME280;7789;51.364;12.358;2023-02-28T21:15:36;101749.91;;;1.65;71.22
15382;BME280;7789;51.364;12.358;2023-02-28T21:20:41;101762.88;;;1.62;71.51
15382;BME280;7789;51.364;12.358;2023-02-28T21:25:44;101751.78;;;1.59;71.82
15382;BME280;7789;51.364;12.358;2023-02-28T21:30:47;101753.56;;;1.55;71.98
15382;BME280;7789;51.364;12.358;2023-02-28T21:35:59;101755.38;;;1.52;72.50
15382;BME280;7789;51.364;12.358;2023-02-28T21:41:04;101765.81;;;1.47;72.59
15382;BME280;7789;51.364;12.358;2023-02-28T21:46:08;101761.56;;;1.45;72.66
15382;BME280;7789;51.364;12.358;2023-02-28T21:51:16;101753.03;;;1.41;73.35
15382;BME280;7789;51.364;12.358;2023-02-28T21:56:21;101759.13;;;1.39;72.42
15382;BME280;7789;51.364;12.358;2023-02-28T22:01:28;101751.50;;;1.34;73.24
15382;BME280;7789;51.364;12.358;2023-02-28T22:06:35;101747.25;;;1.32;73.35
15382;BME280;7789;51.364;12.358;2023-02-28T22:11:38;101748.22;;;1.26;73.63
15382;BME280;7789;51.364;12.358;2023-02-28T22:16:42;101734.59;;;1.23;73.96
15382;BME280;7789;51.364;12.358;2023-02-28T22:21:57;101740.66;;;1.20;74.41
15382;BME280;7789;51.364;12.358;2023-02-28T22:27:00;101744.97;;;1.18;74.66
15382;BME280;7789;51.364;12.358;2023-02-28T22:32:06;101745.88;;;1.16;74.36
15382;BME280;7789;51.364;12.358;2023-02-28T22:37:11;101743.44;;;1.11;74.58
15382;BME280;7789;51.364;12.358;2023-02-28T22:42:14;101742.56;;;1.11;74.66
15382;BME280;7789;51.364;12.358;2023-02-28T22:47:18;101743.47;;;1.08;74.75
15382;BME280;7789;51.364;12.358;2023-02-28T22:52:24;101747.78;;;1.08;74.63
15382;BME280;7789;51.364;12.358;2023-02-28T22:57:27;101752.16;;;1.04;74.99
15382;BME280;7789;51.364;12.358;2023-02-28T23:02:30;101737.59;;;1.02;75.07
15382;BME280;7789;51.364;12.358;2023-02-28T23:07:35;101741.94;;;1.00;75.12
15382;BME280;7789;51.364;12.358;2023-02-28T23:12:38;101765.97;;;0.99;75.16
15382;BME280;7789;51.364;12.358;2023-02-28T23:17:54;101781.44;;;0.99;74.91
15382;BME280;7789;51.364;12.358;2023-02-28T23:22:59;101783.97;;;1.00;74.71
15382;BME280;7789;51.364;12.358;2023-02-28T23:28:02;101781.44;;;0.99;74.79
15382;BME280;7789;51.364;12.358;2023-02-28T23:33:06;101790.00;;;0.99;74.54
15382;BME280;7789;51.364;12.358;2023-02-28T23:38:10;101791.78;;;0.96;74.71
15382;BME280;7789;51.364;12.358;2023-02-28T23:43:14;101780.69;;;0.94;74.95
15382;BME280;7789;51.364;12.358;2023-02-28T23:48:17;101779.88;;;0.92;74.88
15382;BME280;7789;51.364;12.358;2023-02-28T23:53:22;101779.88;;;0.90;75.32
15382;BME280;7789;51.364;12.358;2023-02-28T23:58:25;101766.13;;;0.93;75.07
